Jollyville, Texas
Current Conditions -  °F | °C
As of 12:51 PM on Friday 28 Nov 2014 (Local Time) from KATT Reporting Station
Clear Clear  
Wind Chill: 71°   Ceiling: Unl
Heat Index: 71°   Visibility: 10mi
Dew Point: 50°   Wind: 13mph
Humidity: 47%   Direction: 210°SSW
Pressure: 30.2"   Gusts: 24mph
Location:  30.44°N, 97.77°W
Report Text: KATT 281851Z AUTO 21011G21KT 10SM CLR 22/10 A3020 RMK AO2 SLP224 T02170100
Loading
Personal Weather Stations






























Interactive Weather Map New forecast layout! Learn more

10-Day Weather Forecast

Advertisements
Track Severe Weather on mobile